createdAt,value
2022-08-05T00:02:07.929Z,6.37
2022-08-05T00:04:38.226Z,6.40
2022-08-05T00:07:27.373Z,6.47
2022-08-05T00:09:53.807Z,6.33
2022-08-05T00:12:21.687Z,6.27
2022-08-05T00:14:51.887Z,6.17
2022-08-05T00:17:20.222Z,6.37
2022-08-05T00:20:01.820Z,6.17
2022-08-05T00:22:29.484Z,6.20
2022-08-05T00:24:57.976Z,6.03
2022-08-05T00:27:28.530Z,6.67
2022-08-05T00:30:04.851Z,6.03
2022-08-05T00:32:37.812Z,6.20
2022-08-05T00:35:07.834Z,6.13
2022-08-05T00:37:35.714Z,6.27
2022-08-05T00:40:27.299Z,6.10
2022-08-05T00:42:57.254Z,6.47
2022-08-05T00:45:27.982Z,6.47
2022-08-05T00:48:06.081Z,6.43
2022-08-05T00:50:33.547Z,6.27
2022-08-05T00:53:00.847Z,6.40
2022-08-05T00:55:42.344Z,6.63
2022-08-05T00:58:16.829Z,6.43
2022-08-05T01:00:47.593Z,6.93
2022-08-05T01:03:22.920Z,6.70
2022-08-05T01:05:51.408Z,6.80
2022-08-05T01:08:41.990Z,6.80
2022-08-05T01:11:22.525Z,7.73
2022-08-05T01:14:08.887Z,7.60
2022-08-05T01:16:48.103Z,7.10
2022-08-05T01:19:36.548Z,6.53
2022-08-05T01:22:23.877Z,7.00
2022-08-05T01:25:02.758Z,7.30
2022-08-05T01:28:17.168Z,6.90
2022-08-05T01:30:56.220Z,7.27
2022-08-05T01:33:35.572Z,7.30
2022-08-05T01:36:13.212Z,7.30
2022-08-05T01:38:45.714Z,7.47
2022-08-05T01:41:18.419Z,7.10
2022-08-05T01:43:49.494Z,7.47
2022-08-05T01:46:41.583Z,7.40
2022-08-05T01:49:22.707Z,7.50
2022-08-05T01:51:55.559Z,6.93
2022-08-05T01:54:27.315Z,7.60
2022-08-05T01:58:10.214Z,7.93
2022-08-05T01:59:47.303Z,6.97
2022-08-05T02:02:15.962Z,7.00
2022-08-05T02:04:49.667Z,8.00
2022-08-05T02:07:22.082Z,7.20
2022-08-05T02:09:50.982Z,7.77
2022-08-05T02:13:02.518Z,7.90
2022-08-05T02:15:45.124Z,7.57
2022-08-05T02:18:36.333Z,7.50
2022-08-05T02:21:22.144Z,8.03
2022-08-05T02:23:53.651Z,7.87
2022-08-05T02:26:27.752Z,7.40
2022-08-05T02:28:58.332Z,8.73
2022-08-05T02:31:29.515Z,9.37
2022-08-05T02:34:05.933Z,8.17
2022-08-05T02:36:38.782Z,8.43
2022-08-05T02:39:08.653Z,8.70
2022-08-05T02:41:57.573Z,9.23
2022-08-05T02:44:25.723Z,8.63
2022-08-05T02:47:00.269Z,9.00
2022-08-05T02:49:35.809Z,8.70
2022-08-05T02:52:13.689Z,9.27
2022-08-05T02:54:58.758Z,9.07
2022-08-05T02:58:20.177Z,8.53
2022-08-05T03:00:17.187Z,8.90
2022-08-05T03:02:45.779Z,8.40
2022-08-05T03:05:15.120Z,7.90
2022-08-05T03:08:00.559Z,7.97
2022-08-05T03:10:29.866Z,9.37
2022-08-05T03:15:24.178Z,8.50
2022-08-05T03:17:57.807Z,8.80
2022-08-05T03:20:25.145Z,8.47
2022-08-05T03:22:53.328Z,8.67
2022-08-05T03:26:04.012Z,8.30
2022-08-05T03:28:11.380Z,7.90
2022-08-05T03:30:41.275Z,8.73
2022-08-05T03:33:09.478Z,9.00
2022-08-05T03:35:41.031Z,8.10
2022-08-05T03:38:12.019Z,8.30
2022-08-05T03:40:47.467Z,8.50
2022-08-05T03:44:09.535Z,7.63
2022-08-05T03:46:04.688Z,8.30
2022-08-05T03:48:35.387Z,8.57
2022-08-05T03:52:35.170Z,9.07
2022-08-05T03:55:53.047Z,9.20
2022-08-05T03:56:54.170Z,9.20
2022-08-05T03:59:38.078Z,9.37
2022-08-05T04:02:17.583Z,9.73
2022-08-05T04:05:05.715Z,8.90
2022-08-05T04:07:57.968Z,9.60
2022-08-05T04:10:28.282Z,10.27
2022-08-05T04:12:59.257Z,10.00
2022-08-05T04:15:27.799Z,10.57
2022-08-05T04:18:03.906Z,10.70
2022-08-05T04:20:33.745Z,10.20
2022-08-05T04:23:00.389Z,11.17
2022-08-05T04:25:58.000Z,10.93
2022-08-05T04:28:14.536Z,11.60
2022-08-05T04:30:41.730Z,11.53
2022-08-05T04:33:09.662Z,11.03
2022-08-05T04:36:15.551Z,11.47
2022-08-05T04:38:23.529Z,11.80
2022-08-05T04:41:07.377Z,11.87
2022-08-05T04:43:36.022Z,11.33
2022-08-05T04:46:05.041Z,12.03
2022-08-05T04:48:32.273Z,12.10
2022-08-05T04:51:01.989Z,12.37
2022-08-05T04:53:33.535Z,12.87
2022-08-05T04:56:32.356Z,12.90
2022-08-05T04:58:49.164Z,12.43
2022-08-05T05:01:15.857Z,13.13
2022-08-05T05:04:02.373Z,12.40
2022-08-05T05:06:39.968Z,13.00
2022-08-05T05:09:14.150Z,12.63
2022-08-05T05:11:54.500Z,14.13
2022-08-05T05:14:27.762Z,13.43
2022-08-05T05:17:01.468Z,13.57
2022-08-05T05:19:37.232Z,13.60
2022-08-05T05:22:24.515Z,13.43
2022-08-05T05:24:58.900Z,14.00
2022-08-05T05:27:44.794Z,14.00
2022-08-05T05:30:31.031Z,13.87
2022-08-05T05:33:09.422Z,14.30
2022-08-05T05:35:45.606Z,13.77
2022-08-05T05:38:13.082Z,13.53
2022-08-05T05:40:49.418Z,13.57
2022-08-05T05:43:27.646Z,13.73
2022-08-05T05:46:05.271Z,15.07
2022-08-05T05:48:34.552Z,13.80
2022-08-05T05:51:15.168Z,14.53
2022-08-05T05:53:54.132Z,14.33
2022-08-05T05:56:32.507Z,14.37
2022-08-05T05:59:06.422Z,14.80
2022-08-05T06:01:37.505Z,15.53
2022-08-05T06:04:11.802Z,14.43
2022-08-05T06:06:42.660Z,15.33
2022-08-05T06:09:16.590Z,13.50
2022-08-05T06:11:58.957Z,13.10
2022-08-05T06:14:28.056Z,12.70
2022-08-05T06:16:55.563Z,13.50
2022-08-05T06:19:32.912Z,12.80
2022-08-05T06:22:03.804Z,13.37
2022-08-05T06:24:30.930Z,13.77
2022-08-05T06:26:57.851Z,12.67
2022-08-05T06:29:46.437Z,12.23
2022-08-05T06:32:26.329Z,10.97
2022-08-05T06:34:58.407Z,11.50
2022-08-05T06:37:55.685Z,10.77
2022-08-05T06:40:18.237Z,11.13
2022-08-05T06:42:48.238Z,11.07
2022-08-05T06:45:21.189Z,11.53
2022-08-05T06:48:37.208Z,10.73
2022-08-05T06:50:35.350Z,11.07
2022-08-05T06:53:03.919Z,9.53
2022-08-05T06:55:38.421Z,9.57
2022-08-05T06:58:30.155Z,9.80
2022-08-05T07:00:58.569Z,9.33
2022-08-05T07:03:27.987Z,8.80
2022-08-05T07:05:59.294Z,8.07
2022-08-05T07:08:25.856Z,9.17
2022-08-05T07:10:53.912Z,9.13
2022-08-05T07:13:59.331Z,7.70
2022-08-05T07:17:57.299Z,6.50
2022-08-05T07:22:28.215Z,7.13
2022-08-05T07:24:56.471Z,7.27
2022-08-05T07:27:23.157Z,6.38
2022-08-05T07:30:27.641Z,6.30
2022-08-05T07:32:41.073Z,6.18
2022-08-05T07:36:02.308Z,5.90
2022-08-05T07:37:58.964Z,5.85
2022-08-05T07:40:32.139Z,5.45
2022-08-05T07:42:59.853Z,5.20
2022-08-05T07:45:57.029Z,5.20
2022-08-05T07:49:00.433Z,5.03
2022-08-05T07:51:23.109Z,4.97
2022-08-05T07:53:52.220Z,5.00
2022-08-05T07:56:54.783Z,5.47
2022-08-05T07:59:08.459Z,4.97
2022-08-05T08:01:35.431Z,4.50
2022-08-05T08:04:08.260Z,4.60
2022-08-05T08:06:34.875Z,4.65
2022-08-05T08:09:01.527Z,4.45
2022-08-05T08:11:47.105Z,5.30
2022-08-05T08:14:19.025Z,5.28
2022-08-05T08:16:51.442Z,5.57
2022-08-05T08:20:10.788Z,5.13
2022-08-05T08:22:09.052Z,5.20
2022-08-05T08:24:51.386Z,5.32
2022-08-05T08:27:19.112Z,5.20
2022-08-05T08:30:05.983Z,5.30
2022-08-05T08:32:36.273Z,5.05
2022-08-05T08:35:13.656Z,5.15
2022-08-05T08:37:45.110Z,5.00
2022-08-05T08:40:12.387Z,4.85
2022-08-05T08:42:50.304Z,4.75
2022-08-05T08:45:26.575Z,4.70
2022-08-05T08:48:12.457Z,4.68
2022-08-05T08:51:03.438Z,4.65
2022-08-05T08:53:37.651Z,4.85
2022-08-05T08:56:07.418Z,4.60
2022-08-05T08:58:36.937Z,4.78
2022-08-05T09:01:15.855Z,4.82
2022-08-05T09:03:54.557Z,4.65
2022-08-05T09:06:36.268Z,3.92
2022-08-05T09:09:03.158Z,3.80
2022-08-05T09:11:53.411Z,4.43
2022-08-05T09:14:57.545Z,3.92
2022-08-05T09:17:41.294Z,4.10
2022-08-05T09:20:02.782Z,3.92
2022-08-05T09:23:07.927Z,3.70
2022-08-05T09:26:02.926Z,3.40
2022-08-05T09:28:31.483Z,3.65
2022-08-05T09:31:18.228Z,3.80
2022-08-05T09:33:52.365Z,3.35
2022-08-05T09:36:20.738Z,3.75
2022-08-05T09:39:00.577Z,3.42
2022-08-05T09:41:33.122Z,3.15
2022-08-05T09:44:05.752Z,3.20
2022-08-05T09:46:35.076Z,3.50
2022-08-05T09:49:19.516Z,3.50
2022-08-05T09:51:49.462Z,3.50
2022-08-05T09:54:21.151Z,3.10
2022-08-05T09:56:52.342Z,3.65
2022-08-05T09:59:24.351Z,3.50
2022-08-05T10:01:57.859Z,3.33
2022-08-05T10:04:35.917Z,3.15
2022-08-05T10:07:14.139Z,3.15
2022-08-05T10:10:02.710Z,3.40
2022-08-05T10:12:49.658Z,3.30
2022-08-05T10:15:34.079Z,3.30
2022-08-05T10:18:04.268Z,3.47
2022-08-05T10:20:34.229Z,3.55
2022-08-05T10:23:01.714Z,3.17
2022-08-05T10:25:28.659Z,3.90
2022-08-05T10:28:13.612Z,3.90
2022-08-05T10:32:49.187Z,3.45
2022-08-05T10:33:34.249Z,3.90
2022-08-05T10:36:06.331Z,3.47
2022-08-05T10:38:35.990Z,3.60
2022-08-05T10:41:13.860Z,3.83
2022-08-05T10:44:05.605Z,3.60
2022-08-05T10:46:53.981Z,3.80
2022-08-05T10:49:27.147Z,3.80
2022-08-05T10:52:02.725Z,3.78
2022-08-05T10:55:03.047Z,3.70
2022-08-05T10:57:31.836Z,3.90
2022-08-05T11:00:20.893Z,4.03
2022-08-05T11:03:24.317Z,3.65
2022-08-05T11:06:15.344Z,3.95
2022-08-05T11:09:32.500Z,3.58
2022-08-05T11:12:06.366Z,3.80
2022-08-05T11:17:59.449Z,3.70
2022-08-05T11:20:46.531Z,3.85
2022-08-05T11:24:03.166Z,4.22
2022-08-05T11:26:28.031Z,3.70
2022-08-05T11:28:56.711Z,3.95
2022-08-05T11:31:58.906Z,3.90
2022-08-05T11:34:18.093Z,4.10
2022-08-05T11:36:52.749Z,3.97
2022-08-05T11:39:49.531Z,3.63
2022-08-05T11:42:27.973Z,4.03
2022-08-05T11:45:03.649Z,3.92
2022-08-05T11:47:49.502Z,3.63
2022-08-05T11:50:17.286Z,3.67
2022-08-05T11:52:46.243Z,4.90
2022-08-05T11:55:15.688Z,5.13
2022-08-05T11:58:09.878Z,4.93
2022-08-05T12:00:38.486Z,4.80
2022-08-05T12:03:28.842Z,4.55
2022-08-05T12:06:06.575Z,4.60
2022-08-05T12:08:49.851Z,5.32
2022-08-05T12:11:28.120Z,5.63
2022-08-05T12:14:04.085Z,5.40
2022-08-05T12:16:38.229Z,5.40
2022-08-05T12:19:08.379Z,5.47
2022-08-05T12:21:49.746Z,6.05
2022-08-05T12:24:20.756Z,6.47
2022-08-05T12:26:53.499Z,6.13
2022-08-05T12:29:27.286Z,7.43
2022-08-05T12:31:57.308Z,6.93
2022-08-05T12:34:28.718Z,7.53
2022-08-05T12:37:17.105Z,7.18
2022-08-05T12:40:03.560Z,7.18
2022-08-05T12:42:40.986Z,7.47
2022-08-05T12:45:10.075Z,7.43
2022-08-05T12:47:37.895Z,7.78
2022-08-05T12:50:17.765Z,7.35
2022-08-05T12:52:59.606Z,8.60
2022-08-05T12:55:32.580Z,8.73
2022-08-05T12:58:50.348Z,7.57
2022-08-05T13:02:01.084Z,7.22
2022-08-05T13:03:42.251Z,7.20
2022-08-05T13:06:13.935Z,8.70
2022-08-05T13:08:50.787Z,8.32
2022-08-05T13:12:01.079Z,7.70
2022-08-05T13:14:24.474Z,7.57
2022-08-05T13:16:56.568Z,7.27
2022-08-05T13:19:52.337Z,7.20
2022-08-05T13:22:28.530Z,8.23
2022-08-05T13:24:57.894Z,7.07
2022-08-05T13:27:37.385Z,6.03
2022-08-05T13:30:34.810Z,3.00
2022-08-05T13:32:54.295Z,3.83
2022-08-05T13:35:31.283Z,4.43
2022-08-05T13:38:15.756Z,4.47
2022-08-05T13:40:55.241Z,3.60
2022-08-05T13:43:22.464Z,3.00
2022-08-05T13:45:49.185Z,2.70
2022-08-05T13:48:58.547Z,3.03
2022-08-05T13:51:13.657Z,2.87
2022-08-05T13:53:47.992Z,2.50
2022-08-05T13:56:18.858Z,2.33
2022-08-05T13:58:53.155Z,2.27
2022-08-05T14:01:25.827Z,2.00
2022-08-05T14:04:21.551Z,2.03
2022-08-05T14:06:58.740Z,2.07
2022-08-05T14:09:46.141Z,2.47
2022-08-05T14:12:17.522Z,2.97
2022-08-05T14:14:58.610Z,2.53
2022-08-05T14:17:26.619Z,2.60
2022-08-05T14:19:59.569Z,2.60
2022-08-05T14:22:30.310Z,2.63
2022-08-05T14:24:57.376Z,2.50
2022-08-05T14:27:24.376Z,2.90
2022-08-05T14:29:56.302Z,2.90
2022-08-05T14:32:26.897Z,2.90
2022-08-05T14:34:54.630Z,3.30
2022-08-05T14:37:24.246Z,3.30
2022-08-05T14:40:11.109Z,3.47
2022-08-05T14:42:41.424Z,3.97
2022-08-05T14:45:10.126Z,4.20
2022-08-05T14:48:03.475Z,4.53
2022-08-05T14:50:25.249Z,4.57
2022-08-05T14:52:57.751Z,5.07
2022-08-05T14:55:39.283Z,5.67
2022-08-05T14:58:12.125Z,6.80
2022-08-05T15:00:58.493Z,6.43
2022-08-05T15:03:33.958Z,7.73
2022-08-05T15:06:08.143Z,7.33
2022-08-05T15:08:59.145Z,8.00
2022-08-05T15:11:51.351Z,8.27
2022-08-05T15:14:20.134Z,7.90
2022-08-05T15:17:01.212Z,8.90
2022-08-05T15:19:27.886Z,8.73
2022-08-05T15:21:59.948Z,9.70
2022-08-05T15:24:27.816Z,9.10
2022-08-05T15:26:55.795Z,9.57
2022-08-05T15:29:22.857Z,8.80
2022-08-05T15:31:53.107Z,8.67
2022-08-05T15:34:33.127Z,8.40
2022-08-05T15:37:06.434Z,8.70
2022-08-05T15:40:58.548Z,7.30
2022-08-05T15:42:55.229Z,6.50
2022-08-05T15:45:09.721Z,6.00
2022-08-05T15:47:36.554Z,5.93
2022-08-05T15:50:04.516Z,6.90
2022-08-05T15:52:53.517Z,5.40
2022-08-05T15:55:24.837Z,4.87
2022-08-05T15:58:07.405Z,4.50
2022-08-05T16:01:03.426Z,4.83
2022-08-05T16:03:21.123Z,4.40
2022-08-05T16:05:52.466Z,4.10
2022-08-05T16:08:19.501Z,4.10
2022-08-05T16:10:46.104Z,3.77
2022-08-05T16:13:23.536Z,3.70
2022-08-05T16:15:51.933Z,3.50
2022-08-05T16:18:18.918Z,3.37
2022-08-05T16:20:46.489Z,3.70
2022-08-05T16:23:13.170Z,3.43
2022-08-05T16:25:40.227Z,3.73
2022-08-05T16:28:10.243Z,4.10
2022-08-05T16:30:37.246Z,3.60
2022-08-05T16:33:04.110Z,3.50
2022-08-05T16:35:33.561Z,3.60
2022-08-05T16:38:03.734Z,3.60
2022-08-05T16:40:52.164Z,3.20
2022-08-05T16:43:23.770Z,3.50
2022-08-05T16:46:06.026Z,3.37
2022-08-05T16:48:35.752Z,3.13
2022-08-05T16:51:03.930Z,3.23
2022-08-05T16:54:03.049Z,2.70
2022-08-05T16:56:29.514Z,2.90
2022-08-05T16:58:57.338Z,2.80
2022-08-05T17:01:24.643Z,2.80
2022-08-05T17:03:52.096Z,3.00
2022-08-05T17:06:19.227Z,3.00
2022-08-05T17:08:52.750Z,3.43
2022-08-05T17:11:25.316Z,2.87
2022-08-05T17:13:54.724Z,3.23
2022-08-05T17:16:33.562Z,3.33
2022-08-05T17:19:02.914Z,3.30
2022-08-05T17:21:36.052Z,3.17
2022-08-05T17:24:18.621Z,3.47
2022-08-05T17:26:56.322Z,3.00
2022-08-05T17:29:39.846Z,3.20
2022-08-05T17:32:11.476Z,3.20
2022-08-05T17:34:43.101Z,4.07
2022-08-05T17:37:32.141Z,3.90
2022-08-05T17:39:56.440Z,3.77
2022-08-05T17:42:30.114Z,3.60
2022-08-05T17:45:18.069Z,3.30
2022-08-05T17:47:52.977Z,3.67
2022-08-05T17:50:28.459Z,3.70
2022-08-05T17:53:01.065Z,3.70
2022-08-05T17:55:37.911Z,3.70
2022-08-05T17:58:11.303Z,3.97
2022-08-05T18:00:45.440Z,3.40
2022-08-05T18:03:39.315Z,4.00
2022-08-05T18:06:06.105Z,3.80
2022-08-05T18:08:40.510Z,4.00
2022-08-05T18:11:11.908Z,4.30
2022-08-05T18:13:51.755Z,4.20
2022-08-05T18:16:20.525Z,3.80
2022-08-05T18:18:47.778Z,4.10
2022-08-05T18:21:21.053Z,3.30
2022-08-05T18:23:50.013Z,3.40
2022-08-05T18:26:21.362Z,3.20
2022-08-05T18:28:54.908Z,2.80
2022-08-05T18:31:23.592Z,3.03
2022-08-05T18:33:51.671Z,3.23
2022-08-05T18:36:19.361Z,2.70
2022-08-05T18:38:46.330Z,2.57
2022-08-05T18:41:55.934Z,2.67
2022-08-05T18:44:05.727Z,2.47
2022-08-05T18:46:34.710Z,2.63
2022-08-05T18:49:22.818Z,2.17
2022-08-05T18:52:15.962Z,2.30
2022-08-05T18:54:45.778Z,2.60
2022-08-05T18:57:15.367Z,2.33
2022-08-05T19:00:03.168Z,2.20
2022-08-05T19:02:29.105Z,2.27
2022-08-05T19:05:02.459Z,2.40
2022-08-05T19:07:48.116Z,2.23
2022-08-05T19:10:28.184Z,2.47
2022-08-05T19:12:56.123Z,2.60
2022-08-05T19:15:57.059Z,2.30
2022-08-05T19:18:13.671Z,2.70
2022-08-05T19:20:49.276Z,2.20
2022-08-05T19:24:03.671Z,2.73
2022-08-05T19:26:03.266Z,2.67
2022-08-05T19:28:34.775Z,2.60
2022-08-05T19:31:05.705Z,2.50
2022-08-05T19:33:36.308Z,2.63
2022-08-05T19:36:06.525Z,2.73
2022-08-05T19:38:37.189Z,3.03
2022-08-05T19:41:08.897Z,2.70
2022-08-05T19:44:06.730Z,2.73
2022-08-05T19:46:29.772Z,3.10
2022-08-05T19:48:57.526Z,3.13
2022-08-05T19:52:04.498Z,2.90
2022-08-05T19:54:24.798Z,2.93
2022-08-05T19:56:58.664Z,3.13
2022-08-05T19:59:54.711Z,3.20
2022-08-05T20:02:14.362Z,3.07
2022-08-05T20:04:43.053Z,2.97
2022-08-05T20:07:13.450Z,3.10
2022-08-05T20:09:54.143Z,3.13
2022-08-05T20:12:23.051Z,3.30
2022-08-05T20:14:52.322Z,3.40
2022-08-05T20:17:23.550Z,3.27
2022-08-05T20:19:57.507Z,2.90
2022-08-05T20:22:27.267Z,3.00
2022-08-05T20:24:54.891Z,3.23
2022-08-05T20:27:27.051Z,3.10
2022-08-05T20:29:58.490Z,3.40
2022-08-05T20:32:25.877Z,3.20
2022-08-05T20:34:52.739Z,3.03
2022-08-05T20:38:04.883Z,2.60
2022-08-05T20:40:07.184Z,2.80
2022-08-05T20:42:34.741Z,2.57
2022-08-05T20:45:02.206Z,2.97
2022-08-05T20:47:31.978Z,2.67
2022-08-05T20:49:59.091Z,2.40
2022-08-05T20:52:25.888Z,2.53
2022-08-05T20:55:55.201Z,2.87
2022-08-05T20:57:43.078Z,2.97
2022-08-05T21:00:40.919Z,2.93
2022-08-05T21:03:07.042Z,3.17
2022-08-05T21:05:48.279Z,2.37
2022-08-05T21:08:28.081Z,3.27
2022-08-05T21:11:10.126Z,2.87
2022-08-05T21:13:56.227Z,3.00
2022-08-05T21:16:29.461Z,2.97
2022-08-05T21:18:56.910Z,3.20
2022-08-05T21:21:26.877Z,2.90
2022-08-05T21:24:07.342Z,3.10
2022-08-05T21:26:33.987Z,2.80
2022-08-05T21:29:03.807Z,3.03
2022-08-05T21:31:41.484Z,2.80
2022-08-05T21:34:10.525Z,2.93
2022-08-05T21:36:38.139Z,3.00
2022-08-05T21:39:05.185Z,3.03
2022-08-05T21:41:35.628Z,2.80
2022-08-05T21:44:04.934Z,2.50
2022-08-05T21:46:35.008Z,2.60
2022-08-05T21:49:07.350Z,3.07
2022-08-05T21:52:22.525Z,2.93
2022-08-05T21:54:30.849Z,2.77
2022-08-05T21:57:29.265Z,2.73
2022-08-05T22:00:03.088Z,3.07
2022-08-05T22:02:31.487Z,3.30
2022-08-05T22:04:58.671Z,2.77
2022-08-05T22:07:40.410Z,3.00
2022-08-05T22:10:12.578Z,2.60
2022-08-05T22:12:50.715Z,3.03
2022-08-05T22:16:01.874Z,3.23
2022-08-05T22:18:06.260Z,3.00
2022-08-05T22:20:35.695Z,3.30
2022-08-05T22:23:24.680Z,2.87
2022-08-05T22:26:11.779Z,3.33
2022-08-05T22:28:41.668Z,3.43
2022-08-05T22:31:08.304Z,3.73
2022-08-05T22:33:56.302Z,3.87
2022-08-05T22:36:25.005Z,3.50
2022-08-05T22:38:53.686Z,3.90
2022-08-05T22:42:05.491Z,4.03
2022-08-05T22:44:08.290Z,3.83
2022-08-05T22:46:39.750Z,4.10
2022-08-05T22:49:23.139Z,3.43
2022-08-05T22:52:05.621Z,1.40
2022-08-05T22:54:35.542Z,1.60
2022-08-05T22:57:03.508Z,1.00
2022-08-05T22:59:43.985Z,0.90
2022-08-05T23:02:16.906Z,0.80
2022-08-05T23:04:51.941Z,0.90
2022-08-05T23:07:22.073Z,0.90
2022-08-05T23:09:57.225Z,1.00
2022-08-05T23:12:28.910Z,0.90
2022-08-05T23:14:58.869Z,1.13
2022-08-05T23:17:32.791Z,1.23
2022-08-05T23:20:02.460Z,0.80
2022-08-05T23:22:29.364Z,0.77
2022-08-05T23:24:57.660Z,0.77
2022-08-05T23:27:31.400Z,0.63
2022-08-05T23:30:11.847Z,0.70
2022-08-05T23:32:45.114Z,0.90
2022-08-05T23:35:12.120Z,0.73
2022-08-05T23:37:38.783Z,0.70
2022-08-05T23:40:07.908Z,0.70
2022-08-05T23:42:37.384Z,0.80
2022-08-05T23:45:13.814Z,0.70
2022-08-05T23:47:47.941Z,0.63
2022-08-05T23:50:14.880Z,0.50
2022-08-05T23:52:50.113Z,0.80
2022-08-05T23:55:19.190Z,0.70
2022-08-05T23:57:51.287Z,0.80
